createdAt,value
2023-05-21T00:00:10.764Z,68.65
2023-05-21T00:01:16.274Z,68.96
2023-05-21T00:02:19.878Z,69.24
2023-05-21T00:03:22.291Z,69.74
2023-05-21T00:04:25.536Z,69.62
2023-05-21T00:05:27.739Z,69.91
2023-05-21T00:06:29.984Z,70.31
2023-05-21T00:07:33.224Z,69.93
2023-05-21T00:08:35.346Z,69.68
2023-05-21T00:09:40.607Z,69.68
2023-05-21T00:10:42.778Z,69.05
2023-05-21T00:11:44.903Z,68.29
2023-05-21T00:12:47.068Z,68.43
2023-05-21T00:13:49.192Z,69.39
2023-05-21T00:14:51.620Z,69.46
2023-05-21T00:15:53.780Z,69.10
2023-05-21T00:16:56.005Z,69.52
2023-05-21T00:17:58.164Z,68.75
2023-05-21T00:19:00.456Z,68.85
2023-05-21T00:20:06.285Z,68.90
2023-05-21T00:21:08.427Z,69.21
2023-05-21T00:22:10.617Z,69.83
2023-05-21T00:23:12.930Z,68.78
2023-05-21T00:24:15.227Z,68.49
2023-05-21T00:25:17.490Z,68.12
2023-05-21T00:26:21.668Z,68.10
2023-05-21T00:27:23.798Z,67.99
2023-05-21T00:28:25.953Z,68.79
2023-05-21T00:29:30.161Z,68.17
2023-05-21T00:30:32.283Z,69.06
2023-05-21T00:31:34.419Z,68.25
2023-05-21T00:32:37.117Z,68.79
2023-05-21T00:33:39.308Z,68.87
2023-05-21T00:34:41.528Z,68.33
2023-05-21T00:35:43.781Z,68.31
2023-05-21T00:36:46.596Z,67.89
2023-05-21T00:37:48.699Z,67.93
2023-05-21T00:38:51.636Z,67.70
2023-05-21T00:39:54.014Z,67.80
2023-05-21T00:40:56.523Z,67.51
2023-05-21T00:41:58.716Z,67.10
2023-05-21T00:43:00.863Z,66.91
2023-05-21T00:44:03.247Z,66.78
2023-05-21T00:45:09.131Z,66.76
2023-05-21T00:46:16.594Z,67.00
2023-05-21T00:47:18.883Z,67.11
2023-05-21T00:48:21.008Z,66.42
2023-05-21T00:49:24.584Z,66.96
2023-05-21T00:50:26.812Z,67.65
2023-05-21T00:51:30.961Z,67.35
2023-05-21T00:52:33.352Z,66.84
2023-05-21T00:53:36.185Z,67.19
2023-05-21T00:54:38.606Z,67.44
2023-05-21T00:55:41.012Z,67.79
2023-05-21T00:56:43.183Z,67.83
2023-05-21T00:57:46.096Z,67.45
2023-05-21T00:58:48.530Z,67.76
2023-05-21T00:59:51.834Z,68.05
2023-05-21T01:00:57.077Z,67.93
2023-05-21T01:02:04.310Z,68.29
2023-05-21T01:03:06.805Z,68.45
2023-05-21T01:04:09.093Z,68.33
2023-05-21T01:05:11.317Z,68.45
2023-05-21T01:06:14.208Z,68.26
2023-05-21T01:07:16.341Z,68.17
2023-05-21T01:08:20.817Z,68.35
2023-05-21T01:09:23.041Z,68.54
2023-05-21T01:10:25.808Z,68.46
2023-05-21T01:11:39.846Z,68.83
2023-05-21T01:12:43.885Z,68.94
2023-05-21T01:13:46.647Z,68.66
2023-05-21T01:14:49.639Z,68.47
2023-05-21T01:15:53.703Z,68.85
2023-05-21T01:16:55.888Z,69.21
2023-05-21T01:18:00.360Z,69.93
2023-05-21T01:19:03.561Z,69.62
2023-05-21T01:20:12.709Z,69.96
2023-05-21T01:21:17.483Z,70.38
2023-05-21T01:22:21.427Z,69.98
2023-05-21T01:23:23.820Z,69.41
2023-05-21T01:24:26.039Z,69.24
2023-05-21T01:25:28.236Z,69.38
2023-05-21T01:26:30.505Z,69.07
2023-05-21T01:27:32.731Z,69.01
2023-05-21T01:28:34.967Z,68.48
2023-05-21T01:29:37.100Z,68.63
2023-05-21T01:30:41.434Z,68.75
2023-05-21T01:32:05.856Z,69.11
2023-05-21T01:33:17.380Z,70.13
2023-05-21T01:34:36.887Z,69.91
2023-05-21T01:35:43.151Z,70.22
2023-05-21T01:36:56.016Z,70.11
2023-05-21T01:38:05.785Z,70.25
2023-05-21T01:39:20.031Z,70.65
2023-05-21T01:40:42.230Z,70.92
2023-05-21T01:41:46.163Z,71.16
2023-05-21T01:42:48.484Z,71.13
2023-05-21T01:43:51.305Z,71.66
2023-05-21T01:44:55.998Z,71.25
2023-05-21T01:45:59.558Z,71.72
2023-05-21T01:47:02.668Z,71.77
2023-05-21T01:48:06.654Z,71.51
2023-05-21T01:49:09.343Z,71.54
2023-05-21T01:50:11.700Z,71.77
2023-05-21T01:51:14.160Z,71.72
2023-05-21T01:52:16.518Z,71.18
2023-05-21T01:53:18.698Z,71.23
2023-05-21T01:54:22.036Z,71.44
2023-05-21T01:55:28.196Z,71.55
2023-05-21T01:56:33.767Z,72.07
2023-05-21T01:57:36.048Z,71.25
2023-05-21T01:58:38.230Z,71.64
2023-05-21T01:59:40.426Z,71.75
2023-05-21T02:00:42.787Z,72.16
2023-05-21T02:01:44.977Z,70.87
2023-05-21T02:02:47.259Z,71.15
2023-05-21T02:03:49.538Z,71.16
2023-05-21T02:04:51.801Z,71.55
2023-05-21T02:05:55.740Z,71.53
2023-05-21T02:06:58.089Z,72.33
2023-05-21T02:08:01.663Z,72.99
2023-05-21T02:09:04.794Z,72.65
2023-05-21T02:10:07.814Z,72.41
2023-05-21T02:11:10.078Z,71.81
2023-05-21T02:12:12.233Z,71.68
2023-05-21T02:13:14.552Z,72.47
2023-05-21T02:14:16.846Z,72.56
2023-05-21T02:15:19.278Z,72.77
2023-05-21T02:16:22.509Z,72.87
2023-05-21T02:17:24.827Z,73.01
2023-05-21T02:18:29.298Z,72.97
2023-05-21T02:19:31.465Z,73.49
2023-05-21T02:20:33.600Z,73.72
2023-05-21T02:21:36.072Z,74.38
2023-05-21T02:22:43.393Z,74.25
2023-05-21T02:23:45.782Z,74.71
2023-05-21T02:24:47.938Z,74.42
2023-05-21T02:25:50.164Z,75.27
2023-05-21T02:26:52.512Z,74.96
2023-05-21T02:27:56.816Z,75.03
2023-05-21T02:28:59.079Z,74.95
2023-05-21T02:30:01.584Z,75.15
2023-05-21T02:31:04.048Z,75.01
2023-05-21T02:32:06.496Z,74.77
2023-05-21T02:33:09.205Z,75.07
2023-05-21T02:34:11.633Z,74.96
2023-05-21T02:35:13.852Z,74.75
2023-05-21T02:36:19.047Z,75.23
2023-05-21T02:37:22.097Z,75.07
2023-05-21T02:38:25.961Z,75.18
2023-05-21T02:39:28.218Z,74.92
2023-05-21T02:40:30.432Z,74.97
2023-05-21T02:41:32.554Z,75.62
2023-05-21T02:42:36.576Z,75.64
2023-05-21T02:43:38.819Z,75.23
2023-05-21T02:44:40.940Z,75.56
2023-05-21T02:45:43.073Z,75.65
2023-05-21T02:46:45.309Z,75.42
2023-05-21T02:47:47.484Z,75.10
2023-05-21T02:48:49.630Z,75.48
2023-05-21T02:49:52.613Z,75.46
2023-05-21T02:50:54.850Z,75.98
2023-05-21T02:51:56.978Z,75.90
2023-05-21T02:52:59.877Z,75.83
2023-05-21T02:54:02.017Z,76.60
2023-05-21T02:55:04.477Z,76.46
2023-05-21T02:56:06.741Z,76.41
2023-05-21T02:57:08.874Z,76.63
2023-05-21T02:58:13.488Z,76.25
2023-05-21T02:59:15.508Z,76.07
2023-05-21T03:00:17.798Z,75.90
2023-05-21T03:01:19.997Z,76.00
2023-05-21T03:02:22.383Z,76.48
2023-05-21T03:03:24.734Z,75.75
2023-05-21T03:04:28.402Z,75.67
2023-05-21T03:05:30.865Z,75.85
2023-05-21T03:06:34.798Z,75.98
2023-05-21T03:07:36.925Z,76.08
2023-05-21T03:08:39.407Z,75.61
2023-05-21T03:09:42.430Z,75.84
2023-05-21T03:10:44.768Z,75.52
2023-05-21T03:11:46.928Z,75.98
2023-05-21T03:12:49.299Z,76.04
2023-05-21T03:13:51.599Z,76.22
2023-05-21T03:14:53.730Z,75.86
2023-05-21T03:15:56.586Z,75.54
2023-05-21T03:16:58.771Z,76.08
2023-05-21T03:18:01.802Z,75.66
2023-05-21T03:19:04.139Z,75.84
2023-05-21T03:20:08.863Z,75.94
2023-05-21T03:21:13.335Z,75.86
2023-05-21T03:22:16.003Z,76.21
2023-05-21T03:23:18.241Z,76.14
2023-05-21T03:24:20.353Z,76.21
2023-05-21T03:25:25.275Z,76.47
2023-05-21T03:26:27.660Z,76.50
2023-05-21T03:27:29.833Z,76.56
2023-05-21T03:28:31.977Z,76.78
2023-05-21T03:29:34.721Z,76.58
2023-05-21T03:30:38.399Z,76.19
2023-05-21T03:31:40.807Z,76.45
2023-05-21T03:32:45.148Z,76.61
2023-05-21T03:33:47.350Z,76.42
2023-05-21T03:34:49.543Z,76.36
2023-05-21T03:35:51.792Z,75.98
2023-05-21T03:36:53.893Z,76.35
2023-05-21T03:37:56.112Z,75.84
2023-05-21T03:38:58.291Z,75.79
2023-05-21T03:40:00.484Z,75.48
2023-05-21T03:41:02.656Z,74.76
2023-05-21T03:42:04.951Z,74.45
2023-05-21T03:43:07.080Z,74.71
2023-05-21T03:44:09.324Z,74.18
2023-05-21T03:45:11.894Z,73.55
2023-05-21T03:46:14.064Z,73.82
2023-05-21T03:47:16.413Z,73.26
2023-05-21T03:48:18.941Z,73.20
2023-05-21T03:49:21.162Z,73.54
2023-05-21T03:50:23.397Z,73.45
2023-05-21T03:51:25.806Z,73.47
2023-05-21T03:52:27.917Z,73.00
2023-05-21T03:53:30.114Z,72.71
2023-05-21T03:54:32.255Z,72.46
2023-05-21T03:55:34.528Z,72.37
2023-05-21T03:56:36.813Z,72.31
2023-05-21T03:57:39.361Z,71.84
2023-05-21T03:58:41.558Z,71.75
2023-05-21T03:59:43.768Z,71.42
2023-05-21T04:00:46.116Z,71.21
2023-05-21T04:01:48.291Z,71.28
2023-05-21T04:02:50.520Z,70.84
2023-05-21T04:03:52.891Z,70.71
2023-05-21T04:04:56.020Z,70.49
2023-05-21T04:05:58.530Z,70.54
2023-05-21T04:07:01.030Z,70.88
2023-05-21T04:08:03.181Z,69.91
2023-05-21T04:09:05.314Z,69.68
2023-05-21T04:10:08.030Z,69.76
2023-05-21T04:11:10.159Z,69.78
2023-05-21T04:12:12.402Z,69.86
2023-05-21T04:13:14.556Z,69.46
2023-05-21T04:14:16.709Z,69.64
2023-05-21T04:15:19.463Z,69.22
2023-05-21T04:16:22.610Z,68.82
2023-05-21T04:17:26.945Z,68.57
2023-05-21T04:18:29.198Z,68.41
2023-05-21T04:19:32.466Z,68.57
2023-05-21T04:20:34.782Z,67.90
2023-05-21T04:21:37.346Z,67.69
2023-05-21T04:22:45.451Z,67.51
2023-05-21T04:23:47.616Z,67.67
2023-05-21T04:24:50.036Z,67.58
2023-05-21T04:25:52.154Z,67.47
2023-05-21T04:26:54.342Z,67.67
2023-05-21T04:27:57.005Z,67.95
2023-05-21T04:28:59.496Z,67.71
2023-05-21T04:30:01.635Z,67.32
2023-05-21T04:31:03.814Z,67.78
2023-05-21T04:32:06.493Z,67.64
2023-05-21T04:33:10.010Z,67.53
2023-05-21T04:34:12.149Z,67.92
2023-05-21T04:35:15.347Z,67.95
2023-05-21T04:36:17.550Z,67.67
2023-05-21T04:37:19.694Z,67.58
2023-05-21T04:38:21.816Z,67.71
2023-05-21T04:39:24.114Z,67.44
2023-05-21T04:40:26.872Z,67.16
2023-05-21T04:41:29.192Z,66.89
2023-05-21T04:42:33.048Z,66.83
2023-05-21T04:43:35.347Z,67.26
2023-05-21T04:44:40.435Z,66.96
2023-05-21T04:45:43.589Z,66.48
2023-05-21T04:46:46.258Z,66.36
2023-05-21T04:47:48.696Z,66.08
2023-05-21T04:48:55.022Z,66.63
2023-05-21T04:49:57.366Z,65.80
2023-05-21T04:50:59.944Z,65.87
2023-05-21T04:52:02.587Z,65.73
2023-05-21T04:53:05.059Z,64.86
2023-05-21T04:54:07.761Z,64.36
2023-05-21T04:55:10.121Z,64.15
2023-05-21T04:56:12.294Z,63.97
2023-05-21T04:57:14.404Z,64.00
2023-05-21T04:58:18.433Z,63.85
2023-05-21T04:59:21.717Z,63.11
2023-05-21T05:00:26.211Z,63.20
2023-05-21T05:01:29.456Z,63.35
2023-05-21T05:02:31.674Z,63.44
2023-05-21T05:03:33.873Z,62.64
2023-05-21T05:04:36.046Z,62.54
2023-05-21T05:05:38.490Z,63.00
2023-05-21T05:06:41.044Z,61.32
2023-05-21T05:07:43.607Z,61.16
2023-05-21T05:08:48.875Z,62.90
2023-05-21T05:09:51.033Z,63.34
2023-05-21T05:10:53.167Z,62.96
2023-05-21T05:11:55.533Z,62.21
2023-05-21T05:12:57.971Z,61.16
2023-05-21T05:14:00.103Z,60.24
2023-05-21T05:15:02.291Z,60.06
2023-05-21T05:16:06.124Z,60.22
2023-05-21T05:17:10.010Z,59.35
2023-05-21T05:18:12.448Z,58.81
2023-05-21T05:19:14.760Z,57.57
2023-05-21T05:20:17.062Z,57.58
2023-05-21T05:21:19.172Z,58.40
2023-05-21T05:22:21.315Z,58.43
2023-05-21T05:23:23.459Z,59.24
2023-05-21T05:24:25.716Z,58.07
2023-05-21T05:25:27.906Z,56.59
2023-05-21T05:26:30.033Z,56.48
2023-05-21T05:27:32.282Z,55.95
2023-05-21T05:28:34.408Z,55.85
2023-05-21T05:29:36.982Z,55.61
2023-05-21T05:30:39.216Z,55.69
2023-05-21T05:31:41.380Z,55.91
2023-05-21T05:32:43.597Z,55.38
2023-05-21T05:33:46.219Z,54.91
2023-05-21T05:34:48.340Z,54.79
2023-05-21T05:35:50.593Z,55.02
2023-05-21T05:36:52.779Z,55.91
2023-05-21T05:37:54.881Z,54.50
2023-05-21T05:38:57.062Z,54.75
2023-05-21T05:39:59.301Z,54.68
2023-05-21T05:41:01.452Z,54.43
2023-05-21T05:42:04.076Z,53.92
2023-05-21T05:43:06.672Z,53.44
2023-05-21T05:44:10.805Z,53.74
2023-05-21T05:45:13.183Z,54.73
2023-05-21T05:46:16.648Z,53.60
2023-05-21T05:47:18.836Z,53.91
2023-05-21T05:48:20.953Z,53.69
2023-05-21T05:49:23.089Z,53.55
2023-05-21T05:50:25.220Z,53.46
2023-05-21T05:51:27.351Z,53.75
2023-05-21T05:52:29.484Z,53.57
2023-05-21T05:53:32.502Z,53.41
2023-05-21T05:54:34.704Z,52.93
2023-05-21T05:55:36.922Z,52.42
2023-05-21T05:56:39.368Z,52.66
2023-05-21T05:57:43.276Z,52.41
2023-05-21T05:58:47.057Z,52.77
2023-05-21T05:59:49.176Z,52.46
2023-05-21T06:00:51.438Z,52.94
2023-05-21T06:01:53.641Z,52.24
2023-05-21T06:02:55.848Z,52.15
2023-05-21T06:03:58.147Z,51.92
2023-05-21T06:05:00.395Z,51.94
2023-05-21T06:06:02.661Z,53.65
2023-05-21T06:07:05.076Z,53.38
2023-05-21T06:08:07.209Z,53.18
2023-05-21T06:09:09.329Z,52.20
2023-05-21T06:10:11.527Z,51.50
2023-05-21T06:11:17.183Z,52.55
2023-05-21T06:12:19.454Z,51.45
2023-05-21T06:13:21.610Z,51.83
2023-05-21T06:14:23.752Z,51.23
2023-05-21T06:15:25.924Z,52.02
2023-05-21T06:16:29.105Z,51.08
2023-05-21T06:17:31.913Z,49.96
2023-05-21T06:18:34.164Z,49.52
2023-05-21T06:19:36.292Z,49.97
2023-05-21T06:20:39.092Z,50.50
2023-05-21T06:21:41.255Z,50.96
2023-05-21T06:22:43.370Z,50.55
2023-05-21T06:23:45.600Z,51.10
2023-05-21T06:24:47.883Z,51.86
2023-05-21T06:25:50.100Z,50.81
2023-05-21T06:26:52.239Z,50.20
2023-05-21T06:27:54.350Z,50.32
2023-05-21T06:28:56.669Z,49.52
2023-05-21T06:29:58.841Z,49.89
2023-05-21T06:31:01.044Z,50.20
2023-05-21T06:32:03.584Z,50.31
2023-05-21T06:33:06.320Z,50.59
2023-05-21T06:34:08.560Z,49.81
2023-05-21T06:35:10.981Z,50.17
2023-05-21T06:36:13.155Z,50.00
2023-05-21T06:37:19.760Z,48.61
2023-05-21T06:38:21.906Z,48.85
2023-05-21T06:39:24.689Z,48.43
2023-05-21T06:40:26.851Z,47.71
2023-05-21T06:41:29.217Z,47.63
2023-05-21T06:42:31.350Z,47.69
2023-05-21T06:43:33.496Z,47.54
2023-05-21T06:44:35.628Z,47.63
2023-05-21T06:45:37.980Z,47.75
2023-05-21T06:46:40.480Z,46.93
2023-05-21T06:47:42.742Z,47.84
2023-05-21T06:48:46.031Z,48.19
2023-05-21T06:49:48.149Z,47.83
2023-05-21T06:50:50.281Z,47.91
2023-05-21T06:51:52.435Z,48.21
2023-05-21T06:52:54.563Z,47.77
2023-05-21T06:53:56.712Z,47.86
2023-05-21T06:54:58.876Z,48.37
2023-05-21T06:56:01.026Z,47.93
2023-05-21T06:57:03.250Z,48.81
2023-05-21T06:58:05.419Z,47.57
2023-05-21T06:59:07.614Z,47.64
2023-05-21T07:00:10.572Z,46.71
2023-05-21T07:01:12.826Z,46.47
2023-05-21T07:02:15.040Z,47.29
2023-05-21T07:03:17.565Z,46.67
2023-05-21T07:04:19.974Z,46.57
2023-05-21T07:05:22.643Z,47.40
2023-05-21T07:06:24.856Z,47.77
2023-05-21T07:07:27.456Z,47.18
2023-05-21T07:08:29.644Z,47.16
2023-05-21T07:09:31.882Z,47.13
2023-05-21T07:10:34.112Z,46.62
2023-05-21T07:11:36.317Z,47.18
2023-05-21T07:12:38.544Z,46.74
2023-05-21T07:13:40.686Z,47.65
2023-05-21T07:14:42.853Z,46.85
2023-05-21T07:15:45.095Z,47.33
2023-05-21T07:16:47.470Z,47.05
2023-05-21T07:17:49.644Z,46.82
2023-05-21T07:18:51.848Z,47.05
2023-05-21T07:19:54.020Z,47.21
2023-05-21T07:20:57.154Z,46.08
2023-05-21T07:21:59.323Z,45.98
2023-05-21T07:23:01.473Z,46.72
2023-05-21T07:24:03.784Z,46.08
2023-05-21T07:25:06.745Z,46.34
2023-05-21T07:26:10.239Z,46.17
2023-05-21T07:27:24.655Z,45.72
2023-05-21T07:28:27.644Z,45.44
2023-05-21T07:29:29.933Z,46.05
2023-05-21T07:30:32.046Z,46.07
2023-05-21T07:31:34.347Z,45.03
2023-05-21T07:32:36.670Z,45.21
2023-05-21T07:33:38.848Z,45.65
2023-05-21T07:34:40.990Z,45.54
2023-05-21T07:35:43.160Z,45.75
2023-05-21T07:36:45.454Z,45.16
2023-05-21T07:37:48.272Z,44.76
2023-05-21T07:38:50.541Z,45.06
2023-05-21T07:39:52.751Z,46.22
2023-05-21T07:40:54.977Z,44.92
2023-05-21T07:41:57.126Z,44.55
2023-05-21T07:42:59.288Z,44.75
2023-05-21T07:44:01.786Z,45.18
2023-05-21T07:45:04.232Z,44.68
2023-05-21T07:46:06.487Z,45.03
2023-05-21T07:47:08.650Z,45.10
2023-05-21T07:48:11.812Z,43.78
2023-05-21T07:49:16.853Z,44.84
2023-05-21T07:50:19.339Z,44.70
2023-05-21T07:51:21.884Z,45.22
2023-05-21T07:52:24.074Z,43.92
2023-05-21T07:53:26.227Z,44.83
2023-05-21T07:54:28.698Z,44.28
2023-05-21T07:55:30.915Z,44.42
2023-05-21T07:56:33.048Z,46.18
2023-05-21T07:57:35.547Z,46.04
2023-05-21T07:58:37.902Z,44.60
2023-05-21T07:59:40.042Z,44.97
2023-05-21T08:00:44.737Z,44.93
2023-05-21T08:01:46.987Z,44.18
2023-05-21T08:02:49.379Z,45.00
2023-05-21T08:03:52.840Z,45.00
2023-05-21T08:04:55.281Z,44.66
2023-05-21T08:05:57.551Z,45.31
2023-05-21T08:06:59.738Z,44.19
2023-05-21T08:08:01.883Z,44.22
2023-05-21T08:09:05.080Z,43.57
2023-05-21T08:10:07.867Z,42.53
2023-05-21T08:11:10.048Z,42.71
2023-05-21T08:12:15.763Z,43.75
2023-05-21T08:13:17.981Z,42.96
2023-05-21T08:14:20.200Z,42.89
2023-05-21T08:15:22.509Z,43.78
2023-05-21T08:16:24.677Z,42.72
2023-05-21T08:17:28.549Z,43.31
2023-05-21T08:18:31.228Z,43.29
2023-05-21T08:19:33.469Z,43.49
2023-05-21T08:20:35.710Z,42.66
2023-05-21T08:21:37.853Z,42.23
2023-05-21T08:22:39.966Z,42.64
2023-05-21T08:23:42.174Z,44.00
2023-05-21T08:24:44.585Z,42.83
2023-05-21T08:25:46.746Z,42.22
2023-05-21T08:26:50.651Z,43.45
2023-05-21T08:27:52.933Z,42.90
2023-05-21T08:28:55.150Z,44.22
2023-05-21T08:29:57.264Z,44.17
2023-05-21T08:30:59.403Z,44.47
2023-05-21T08:32:02.167Z,44.77
2023-05-21T08:33:04.378Z,44.48
2023-05-21T08:34:06.616Z,43.51
2023-05-21T08:35:09.186Z,43.59
2023-05-21T08:36:11.388Z,41.83
2023-05-21T08:37:13.577Z,41.84
2023-05-21T08:38:17.062Z,42.32
2023-05-21T08:39:19.660Z,42.45
2023-05-21T08:40:21.901Z,41.34
2023-05-21T08:41:24.454Z,42.14
2023-05-21T08:42:45.823Z,41.97
2023-05-21T08:43:50.389Z,42.76
2023-05-21T08:44:55.289Z,42.46
2023-05-21T08:45:59.355Z,41.98
2023-05-21T08:47:02.589Z,42.09
2023-05-21T08:48:05.341Z,41.52
2023-05-21T08:49:12.002Z,41.44
2023-05-21T08:50:15.555Z,43.17
2023-05-21T08:51:17.772Z,41.67
2023-05-21T08:52:20.162Z,42.34
2023-05-21T08:53:28.118Z,42.65
2023-05-21T08:54:31.670Z,41.58
2023-05-21T08:55:35.078Z,40.19
2023-05-21T08:56:38.093Z,41.47
2023-05-21T08:57:43.515Z,41.38
2023-05-21T08:58:46.888Z,41.17
2023-05-21T08:59:49.092Z,41.08
2023-05-21T09:00:51.435Z,40.92
2023-05-21T09:01:55.308Z,40.10
2023-05-21T09:03:01.234Z,40.52
2023-05-21T09:04:16.142Z,40.28
2023-05-21T09:05:22.618Z,40.38
2023-05-21T09:06:27.680Z,41.44
2023-05-21T09:07:34.520Z,39.81
2023-05-21T09:08:39.085Z,39.48
2023-05-21T09:09:58.651Z,41.97
2023-05-21T09:11:01.782Z,40.43
2023-05-21T09:12:04.287Z,39.55
2023-05-21T09:13:08.041Z,39.10
2023-05-21T09:14:11.591Z,38.52
2023-05-21T09:15:13.735Z,37.76
2023-05-21T09:16:15.911Z,36.30
2023-05-21T09:17:18.268Z,36.49
2023-05-21T09:18:20.470Z,36.84
2023-05-21T09:19:23.059Z,36.00
2023-05-21T09:20:26.870Z,35.13
2023-05-21T09:21:31.352Z,33.83
2023-05-21T09:22:33.773Z,33.73
2023-05-21T09:23:36.152Z,32.84
2023-05-21T09:24:38.327Z,33.55
2023-05-21T09:25:42.015Z,32.25
2023-05-21T09:26:44.307Z,33.45
2023-05-21T09:27:46.465Z,32.62
2023-05-21T09:28:48.604Z,32.56
2023-05-21T09:29:51.064Z,32.62
2023-05-21T09:30:55.938Z,32.90
2023-05-21T09:31:59.066Z,33.24
2023-05-21T09:33:01.732Z,31.80
2023-05-21T09:34:04.024Z,32.27
2023-05-21T09:35:13.381Z,34.28
2023-05-21T09:36:20.121Z,33.09
2023-05-21T09:37:27.644Z,33.02
2023-05-21T09:38:30.359Z,32.78
2023-05-21T09:39:33.482Z,31.19
2023-05-21T09:40:35.930Z,30.52
2023-05-21T09:41:38.262Z,30.69
2023-05-21T09:42:41.224Z,30.63
2023-05-21T09:43:46.407Z,30.36
2023-05-21T09:44:48.622Z,30.12
2023-05-21T09:45:58.968Z,30.48
2023-05-21T09:47:03.332Z,30.98
2023-05-21T09:48:05.807Z,31.08
2023-05-21T09:49:08.444Z,31.09
2023-05-21T09:50:12.093Z,31.79
2023-05-21T09:51:18.444Z,32.30
2023-05-21T09:52:27.645Z,32.80
2023-05-21T09:53:29.857Z,32.83
2023-05-21T09:54:33.947Z,31.76
2023-05-21T09:55:36.476Z,30.46
2023-05-21T09:56:39.764Z,30.80
2023-05-21T09:57:47.213Z,31.69
2023-05-21T09:58:54.956Z,31.50
2023-05-21T09:59:57.155Z,31.81
2023-05-21T10:00:59.383Z,31.54
2023-05-21T10:02:02.426Z,30.52
2023-05-21T10:03:09.827Z,30.09
2023-05-21T10:04:12.549Z,30.83
2023-05-21T10:05:17.877Z,30.96
2023-05-21T10:06:21.048Z,30.95
2023-05-21T10:07:26.265Z,31.22
2023-05-21T10:08:31.463Z,30.14
2023-05-21T10:09:33.759Z,30.94
2023-05-21T10:10:36.332Z,30.46
2023-05-21T10:11:40.022Z,30.76
2023-05-21T10:12:47.464Z,29.04
2023-05-21T10:13:56.197Z,29.99
2023-05-21T10:15:04.240Z,29.27
2023-05-21T10:16:06.640Z,30.03
2023-05-21T10:17:09.032Z,28.54
2023-05-21T10:18:12.463Z,28.00
2023-05-21T10:19:15.701Z,29.02
2023-05-21T10:20:18.154Z,28.19
2023-05-21T10:21:22.844Z,27.41
2023-05-21T10:22:25.436Z,28.93
2023-05-21T10:23:28.233Z,28.51
2023-05-21T10:24:31.348Z,29.38
2023-05-21T10:25:33.736Z,29.02
2023-05-21T10:26:36.820Z,29.56
2023-05-21T10:27:39.538Z,28.57
2023-05-21T10:28:42.318Z,27.77
2023-05-21T10:29:45.759Z,28.82
2023-05-21T10:30:48.114Z,27.44
2023-05-21T10:31:52.842Z,28.12
2023-05-21T10:32:57.080Z,28.30
2023-05-21T10:34:00.682Z,27.69
2023-05-21T10:35:02.973Z,29.21
2023-05-21T10:36:05.738Z,28.00
2023-05-21T10:37:09.588Z,26.97
2023-05-21T10:38:12.118Z,26.27
2023-05-21T10:39:14.709Z,26.24
2023-05-21T10:40:18.088Z,27.29
2023-05-21T10:41:21.948Z,26.75
2023-05-21T10:42:24.074Z,26.39
2023-05-21T10:43:44.277Z,26.14
2023-05-21T10:44:56.385Z,24.95
2023-05-21T10:46:16.400Z,24.71
2023-05-21T10:47:24.665Z,26.92
2023-05-21T10:48:32.696Z,26.77
2023-05-21T10:49:55.200Z,25.05
2023-05-21T10:51:49.863Z,26.08
2023-05-21T10:53:36.922Z,26.70
2023-05-21T10:55:08.393Z,26.13
2023-05-21T10:56:16.105Z,26.52
2023-05-21T10:57:43.065Z,26.39
2023-05-21T10:58:51.130Z,27.50
2023-05-21T10:59:53.458Z,27.37
2023-05-21T11:00:55.947Z,27.12
2023-05-21T11:01:58.317Z,26.77
2023-05-21T11:03:01.810Z,27.14
2023-05-21T11:04:05.883Z,26.73
2023-05-21T11:05:08.260Z,26.06
2023-05-21T11:06:11.686Z,26.05
2023-05-21T11:07:13.853Z,25.10
2023-05-21T11:08:23.022Z,25.11
2023-05-21T11:09:26.967Z,24.74
2023-05-21T11:10:32.892Z,25.17
2023-05-21T11:11:43.918Z,26.06
2023-05-21T11:13:11.142Z,25.09
2023-05-21T11:14:35.296Z,25.65
2023-05-21T11:15:59.646Z,24.22
2023-05-21T11:17:03.888Z,23.80
2023-05-21T11:18:06.281Z,25.28
2023-05-21T11:19:17.323Z,25.28
2023-05-21T11:20:21.709Z,24.67
2023-05-21T11:21:28.430Z,25.38
2023-05-21T11:22:30.827Z,27.12
2023-05-21T11:23:51.091Z,27.02
2023-05-21T11:25:01.686Z,26.60
2023-05-21T11:26:03.852Z,26.06
2023-05-21T11:27:07.072Z,23.78
2023-05-21T11:28:09.702Z,25.54
2023-05-21T11:29:12.146Z,25.01
2023-05-21T11:30:18.913Z,25.02
2023-05-21T11:31:27.958Z,23.33
2023-05-21T11:32:31.717Z,22.90
2023-05-21T11:33:33.955Z,23.66
2023-05-21T11:34:44.051Z,23.83
2023-05-21T11:35:46.230Z,23.93
2023-05-21T11:36:49.134Z,23.78
2023-05-21T11:37:54.025Z,24.37
2023-05-21T11:39:09.624Z,24.66
2023-05-21T11:40:30.570Z,25.24
2023-05-21T11:42:01.557Z,27.66
2023-05-21T11:43:05.399Z,26.86
2023-05-21T11:44:09.053Z,26.05
2023-05-21T11:45:11.555Z,25.45
2023-05-21T11:46:14.367Z,25.41
2023-05-21T11:47:18.585Z,25.48
2023-05-21T11:48:27.303Z,25.26
2023-05-21T11:49:31.152Z,25.17
2023-05-21T11:50:34.202Z,24.63
2023-05-21T11:51:36.809Z,25.26
2023-05-21T11:52:39.108Z,24.64
2023-05-21T11:53:44.337Z,23.65
2023-05-21T11:54:50.712Z,24.07
2023-05-21T11:55:57.700Z,24.09
2023-05-21T11:57:03.604Z,25.09
2023-05-21T11:58:06.007Z,23.43
2023-05-21T11:59:16.022Z,23.02
2023-05-21T12:00:19.339Z,21.98
2023-05-21T12:01:24.881Z,21.96
2023-05-21T12:02:31.414Z,21.78
2023-05-21T12:03:35.341Z,21.70
2023-05-21T12:04:37.660Z,21.60
2023-05-21T12:05:47.311Z,21.54
2023-05-21T12:06:50.775Z,21.37
2023-05-21T12:07:55.605Z,21.30
2023-05-21T12:08:58.487Z,21.11
2023-05-21T12:10:01.082Z,21.79
2023-05-21T12:11:03.253Z,21.23
2023-05-21T12:12:06.500Z,22.79
2023-05-21T12:13:08.742Z,24.50
2023-05-21T12:14:11.396Z,25.15
2023-05-21T12:15:13.904Z,25.88
2023-05-21T12:16:16.100Z,26.13
2023-05-21T12:17:19.598Z,24.00
2023-05-21T12:18:21.922Z,24.85
2023-05-21T12:19:24.267Z,25.81
2023-05-21T12:20:28.224Z,24.16
2023-05-21T12:21:31.572Z,23.73
2023-05-21T12:22:33.820Z,23.07
2023-05-21T12:23:36.470Z,23.09
2023-05-21T12:24:38.969Z,23.89
2023-05-21T12:25:41.205Z,23.75
2023-05-21T12:26:46.023Z,23.76
2023-05-21T12:27:50.332Z,23.90
2023-05-21T12:28:52.780Z,24.19
2023-05-21T12:29:55.078Z,24.94
2023-05-21T12:30:57.198Z,24.96
2023-05-21T12:32:01.082Z,23.43
2023-05-21T12:33:04.505Z,23.95
2023-05-21T12:34:08.273Z,23.89
2023-05-21T12:35:20.729Z,24.28
2023-05-21T12:36:26.717Z,22.37
2023-05-21T12:37:35.682Z,22.05
2023-05-21T12:38:38.096Z,23.04
2023-05-21T12:39:42.764Z,23.96
2023-05-21T12:40:45.738Z,23.84
2023-05-21T12:41:48.174Z,23.32
2023-05-21T12:42:50.986Z,22.74
2023-05-21T12:43:53.130Z,22.40
2023-05-21T12:44:56.068Z,22.64
2023-05-21T12:45:58.374Z,21.56
2023-05-21T12:47:01.154Z,21.30
2023-05-21T12:48:03.537Z,21.63
2023-05-21T12:49:05.888Z,21.60
2023-05-21T12:50:11.935Z,22.38
2023-05-21T12:51:14.175Z,21.88
2023-05-21T12:52:21.004Z,23.50
2023-05-21T12:53:23.143Z,23.40
2023-05-21T12:54:33.257Z,22.60
2023-05-21T12:55:35.924Z,21.56
2023-05-21T12:56:45.490Z,21.22
2023-05-21T12:57:47.922Z,21.63
2023-05-21T12:58:50.536Z,22.70
2023-05-21T12:59:59.696Z,21.62
2023-05-21T13:01:03.913Z,22.01
2023-05-21T13:02:07.469Z,21.25
2023-05-21T13:03:09.700Z,21.10
2023-05-21T13:04:12.016Z,22.39
2023-05-21T13:05:18.158Z,20.76
2023-05-21T13:06:20.302Z,19.97
2023-05-21T13:07:23.106Z,21.06
2023-05-21T13:08:25.270Z,21.08
2023-05-21T13:09:28.562Z,20.86
2023-05-21T13:10:30.724Z,20.81
2023-05-21T13:11:32.879Z,21.72
2023-05-21T13:12:35.499Z,20.91
2023-05-21T13:13:37.648Z,21.14
2023-05-21T13:14:39.849Z,22.61
2023-05-21T13:15:42.056Z,23.50
2023-05-21T13:16:47.150Z,24.84
2023-05-21T13:17:50.422Z,23.33
2023-05-21T13:18:53.251Z,23.86
2023-05-21T13:20:09.679Z,24.03
2023-05-21T13:21:12.017Z,23.40
2023-05-21T13:22:14.165Z,23.09
2023-05-21T13:23:16.454Z,23.40
2023-05-21T13:24:18.713Z,21.80
2023-05-21T13:25:29.126Z,20.74
2023-05-21T13:26:31.381Z,21.21
2023-05-21T13:27:33.443Z,21.33
2023-05-21T13:28:35.720Z,21.71
2023-05-21T13:29:38.175Z,21.53
2023-05-21T13:30:40.530Z,21.08
2023-05-21T13:31:43.772Z,21.64
2023-05-21T13:32:46.287Z,20.81
2023-05-21T13:33:48.628Z,21.20
2023-05-21T13:34:50.806Z,21.67
2023-05-21T13:35:52.936Z,21.24
2023-05-21T13:36:55.104Z,21.10
2023-05-21T13:37:57.304Z,21.01
2023-05-21T13:38:59.527Z,19.86
2023-05-21T13:40:06.464Z,20.43
2023-05-21T13:41:08.607Z,19.44